sensor_id;sensor_type;location;lat;lon;timestamp;P1;durP1;ratioP1;P2;durP2;ratioP2
77400;SDS011;66855;45.414;11.082;2023-04-24T00:01:22;8.80;;;6.30;;
77400;SDS011;66855;45.414;11.082;2023-04-24T00:03:50;10.00;;;6.60;;
77400;SDS011;66855;45.414;11.082;2023-04-24T00:06:17;8.80;;;6.60;;
77400;SDS011;66855;45.414;11.082;2023-04-24T00:08:44;8.20;;;6.40;;
77400;SDS011;66855;45.414;11.082;2023-04-24T00:11:10;7.60;;;6.30;;
77400;SDS011;66855;45.414;11.082;2023-04-24T00:13:37;10.20;;;6.90;;
77400;SDS011;66855;45.414;11.082;2023-04-24T00:16:04;10.50;;;7.10;;
77400;SDS011;66855;45.414;11.082;2023-04-24T00:18:32;9.40;;;6.60;;
77400;SDS011;66855;45.414;11.082;2023-04-24T00:20:58;9.30;;;7.20;;
77400;SDS011;66855;45.414;11.082;2023-04-24T00:23:26;10.00;;;7.60;;
77400;SDS011;66855;45.414;11.082;2023-04-24T00:25:54;10.60;;;7.30;;
77400;SDS011;66855;45.414;11.082;2023-04-24T00:28:21;9.80;;;7.30;;
77400;SDS011;66855;45.414;11.082;2023-04-24T00:30:47;10.80;;;7.80;;
77400;SDS011;66855;45.414;11.082;2023-04-24T00:33:14;10.00;;;7.00;;
77400;SDS011;66855;45.414;11.082;2023-04-24T00:35:41;10.80;;;7.70;;
77400;SDS011;66855;45.414;11.082;2023-04-24T00:38:10;12.10;;;8.70;;
77400;SDS011;66855;45.414;11.082;2023-04-24T00:40:36;12.70;;;7.80;;
77400;SDS011;66855;45.414;11.082;2023-04-24T00:43:03;13.40;;;8.60;;
77400;SDS011;66855;45.414;11.082;2023-04-24T00:45:30;12.10;;;8.40;;
77400;SDS011;66855;45.414;11.082;2023-04-24T00:47:57;11.60;;;8.10;;
77400;SDS011;66855;45.414;11.082;2023-04-24T00:50:25;10.80;;;8.30;;
77400;SDS011;66855;45.414;11.082;2023-04-24T00:52:52;10.40;;;8.20;;
77400;SDS011;66855;45.414;11.082;2023-04-24T00:55:19;13.90;;;9.70;;
77400;SDS011;66855;45.414;11.082;2023-04-24T00:57:46;16.30;;;8.50;;
77400;SDS011;66855;45.414;11.082;2023-04-24T01:00:14;14.30;;;9.60;;
77400;SDS011;66855;45.414;11.082;2023-04-24T01:02:43;12.80;;;8.80;;
77400;SDS011;66855;45.414;11.082;2023-04-24T01:05:12;12.60;;;9.50;;
77400;SDS011;66855;45.414;11.082;2023-04-24T01:07:43;11.70;;;8.60;;
77400;SDS011;66855;45.414;11.082;2023-04-24T01:10:12;12.70;;;9.90;;
77400;SDS011;66855;45.414;11.082;2023-04-24T01:12:39;12.70;;;9.50;;
77400;SDS011;66855;45.414;11.082;2023-04-24T01:15:06;15.90;;;9.90;;
77400;SDS011;66855;45.414;11.082;2023-04-24T01:17:34;12.20;;;9.70;;
77400;SDS011;66855;45.414;11.082;2023-04-24T01:20:01;13.20;;;9.60;;
77400;SDS011;66855;45.414;11.082;2023-04-24T01:22:35;11.80;;;8.50;;
77400;SDS011;66855;45.414;11.082;2023-04-24T01:25:02;13.50;;;9.60;;
77400;SDS011;66855;45.414;11.082;2023-04-24T01:27:30;12.70;;;9.30;;
77400;SDS011;66855;45.414;11.082;2023-04-24T01:29:56;13.80;;;8.60;;
77400;SDS011;66855;45.414;11.082;2023-04-24T01:32:24;13.90;;;10.30;;
77400;SDS011;66855;45.414;11.082;2023-04-24T01:34:51;14.00;;;9.40;;
77400;SDS011;66855;45.414;11.082;2023-04-24T01:37:18;11.60;;;8.60;;
77400;SDS011;66855;45.414;11.082;2023-04-24T01:39:45;12.10;;;9.40;;
77400;SDS011;66855;45.414;11.082;2023-04-24T01:42:12;12.60;;;9.20;;
77400;SDS011;66855;45.414;11.082;2023-04-24T01:44:39;12.80;;;9.20;;
77400;SDS011;66855;45.414;11.082;2023-04-24T01:47:07;14.00;;;9.60;;
77400;SDS011;66855;45.414;11.082;2023-04-24T01:49:33;12.10;;;9.80;;
77400;SDS011;66855;45.414;11.082;2023-04-24T01:52:00;13.80;;;10.20;;
77400;SDS011;66855;45.414;11.082;2023-04-24T01:54:29;15.20;;;10.50;;
77400;SDS011;66855;45.414;11.082;2023-04-24T01:56:57;15.40;;;10.40;;
77400;SDS011;66855;45.414;11.082;2023-04-24T01:59:24;12.40;;;8.90;;
77400;SDS011;66855;45.414;11.082;2023-04-24T02:01:52;12.40;;;9.10;;
77400;SDS011;66855;45.414;11.082;2023-04-24T02:04:18;13.50;;;8.70;;
77400;SDS011;66855;45.414;11.082;2023-04-24T02:06:46;12.70;;;9.00;;
77400;SDS011;66855;45.414;11.082;2023-04-24T02:09:13;10.40;;;7.90;;
77400;SDS011;66855;45.414;11.082;2023-04-24T02:11:39;10.60;;;8.00;;
77400;SDS011;66855;45.414;11.082;2023-04-24T02:14:06;12.10;;;8.30;;
77400;SDS011;66855;45.414;11.082;2023-04-24T02:16:33;11.10;;;7.90;;
77400;SDS011;66855;45.414;11.082;2023-04-24T02:19:03;9.40;;;6.70;;
77400;SDS011;66855;45.414;11.082;2023-04-24T02:21:30;10.70;;;7.70;;
77400;SDS011;66855;45.414;11.082;2023-04-24T02:24:00;11.70;;;8.20;;
77400;SDS011;66855;45.414;11.082;2023-04-24T02:26:27;11.30;;;8.20;;
77400;SDS011;66855;45.414;11.082;2023-04-24T02:28:54;11.90;;;8.30;;
77400;SDS011;66855;45.414;11.082;2023-04-24T02:31:21;12.50;;;8.50;;
77400;SDS011;66855;45.414;11.082;2023-04-24T02:33:48;11.10;;;7.60;;
77400;SDS011;66855;45.414;11.082;2023-04-24T02:36:14;10.60;;;7.90;;
77400;SDS011;66855;45.414;11.082;2023-04-24T02:38:41;11.70;;;8.60;;
77400;SDS011;66855;45.414;11.082;2023-04-24T02:41:08;12.10;;;8.50;;
77400;SDS011;66855;45.414;11.082;2023-04-24T02:43:35;11.80;;;8.40;;
77400;SDS011;66855;45.414;11.082;2023-04-24T02:46:01;13.30;;;8.90;;
77400;SDS011;66855;45.414;11.082;2023-04-24T02:48:29;12.90;;;8.40;;
77400;SDS011;66855;45.414;11.082;2023-04-24T02:50:55;13.30;;;8.80;;
77400;SDS011;66855;45.414;11.082;2023-04-24T02:53:24;13.80;;;8.90;;
77400;SDS011;66855;45.414;11.082;2023-04-24T02:55:50;12.30;;;8.80;;
77400;SDS011;66855;45.414;11.082;2023-04-24T02:58:17;13.00;;;8.40;;
77400;SDS011;66855;45.414;11.082;2023-04-24T03:00:46;13.10;;;8.60;;
77400;SDS011;66855;45.414;11.082;2023-04-24T03:03:13;12.20;;;8.30;;
77400;SDS011;66855;45.414;11.082;2023-04-24T03:05:41;11.50;;;7.90;;
77400;SDS011;66855;45.414;11.082;2023-04-24T03:08:08;13.80;;;9.90;;
77400;SDS011;66855;45.414;11.082;2023-04-24T03:10:35;14.60;;;9.30;;
77400;SDS011;66855;45.414;11.082;2023-04-24T03:13:02;14.80;;;9.40;;
77400;SDS011;66855;45.414;11.082;2023-04-24T03:15:28;12.10;;;8.80;;
77400;SDS011;66855;45.414;11.082;2023-04-24T03:17:55;13.20;;;8.50;;
77400;SDS011;66855;45.414;11.082;2023-04-24T03:20:22;13.60;;;8.40;;
77400;SDS011;66855;45.414;11.082;2023-04-24T03:22:50;14.50;;;9.50;;
77400;SDS011;66855;45.414;11.082;2023-04-24T03:25:17;13.60;;;9.20;;
77400;SDS011;66855;45.414;11.082;2023-04-24T03:27:44;12.60;;;10.00;;
77400;SDS011;66855;45.414;11.082;2023-04-24T03:30:22;14.40;;;10.30;;
77400;SDS011;66855;45.414;11.082;2023-04-24T03:32:53;17.20;;;9.70;;
77400;SDS011;66855;45.414;11.082;2023-04-24T03:35:23;15.70;;;10.40;;
77400;SDS011;66855;45.414;11.082;2023-04-24T03:37:50;12.90;;;9.80;;
77400;SDS011;66855;45.414;11.082;2023-04-24T03:40:52;13.50;;;9.20;;
77400;SDS011;66855;45.414;11.082;2023-04-24T03:43:38;12.40;;;8.50;;
77400;SDS011;66855;45.414;11.082;2023-04-24T03:46:05;14.40;;;9.60;;
77400;SDS011;66855;45.414;11.082;2023-04-24T03:48:36;11.10;;;8.60;;
77400;SDS011;66855;45.414;11.082;2023-04-24T03:51:03;11.90;;;8.90;;
77400;SDS011;66855;45.414;11.082;2023-04-24T03:53:30;13.20;;;8.40;;
77400;SDS011;66855;45.414;11.082;2023-04-24T03:55:58;14.30;;;8.40;;
77400;SDS011;66855;45.414;11.082;2023-04-24T03:58:24;12.40;;;8.90;;
77400;SDS011;66855;45.414;11.082;2023-04-24T04:00:53;11.60;;;8.80;;
77400;SDS011;66855;45.414;11.082;2023-04-24T04:03:44;11.00;;;8.50;;
77400;SDS011;66855;45.414;11.082;2023-04-24T04:06:13;13.10;;;8.60;;
77400;SDS011;66855;45.414;11.082;2023-04-24T04:08:40;11.60;;;8.40;;
77400;SDS011;66855;45.414;11.082;2023-04-24T04:11:07;11.30;;;8.50;;
77400;SDS011;66855;45.414;11.082;2023-04-24T04:13:34;13.30;;;8.60;;
77400;SDS011;66855;45.414;11.082;2023-04-24T04:16:01;10.30;;;7.40;;
77400;SDS011;66855;45.414;11.082;2023-04-24T04:18:28;10.60;;;7.70;;
77400;SDS011;66855;45.414;11.082;2023-04-24T04:20:54;12.60;;;8.20;;
77400;SDS011;66855;45.414;11.082;2023-04-24T04:23:23;12.20;;;8.20;;
77400;SDS011;66855;45.414;11.082;2023-04-24T04:26:02;9.30;;;7.00;;
77400;SDS011;66855;45.414;11.082;2023-04-24T04:28:41;11.30;;;8.60;;
77400;SDS011;66855;45.414;11.082;2023-04-24T04:31:07;11.00;;;8.60;;
77400;SDS011;66855;45.414;11.082;2023-04-24T04:33:34;11.00;;;8.10;;
77400;SDS011;66855;45.414;11.082;2023-04-24T04:36:03;9.40;;;7.40;;
77400;SDS011;66855;45.414;11.082;2023-04-24T04:38:31;9.90;;;7.60;;
77400;SDS011;66855;45.414;11.082;2023-04-24T04:41:08;11.40;;;7.60;;
77400;SDS011;66855;45.414;11.082;2023-04-24T04:43:35;11.60;;;8.60;;
77400;SDS011;66855;45.414;11.082;2023-04-24T04:46:02;14.50;;;8.70;;
77400;SDS011;66855;45.414;11.082;2023-04-24T04:48:59;12.70;;;8.70;;
77400;SDS011;66855;45.414;11.082;2023-04-24T04:51:28;12.20;;;8.30;;
77400;SDS011;66855;45.414;11.082;2023-04-24T04:53:55;8.70;;;6.00;;
77400;SDS011;66855;45.414;11.082;2023-04-24T04:56:22;12.90;;;8.50;;
77400;SDS011;66855;45.414;11.082;2023-04-24T04:58:49;10.30;;;7.40;;
77400;SDS011;66855;45.414;11.082;2023-04-24T05:01:16;10.40;;;8.10;;
77400;SDS011;66855;45.414;11.082;2023-04-24T05:03:45;12.10;;;8.70;;
77400;SDS011;66855;45.414;11.082;2023-04-24T05:06:14;11.30;;;7.90;;
77400;SDS011;66855;45.414;11.082;2023-04-24T05:08:42;9.50;;;7.20;;
77400;SDS011;66855;45.414;11.082;2023-04-24T05:11:15;11.10;;;8.30;;
77400;SDS011;66855;45.414;11.082;2023-04-24T05:13:42;12.00;;;8.00;;
77400;SDS011;66855;45.414;11.082;2023-04-24T05:16:13;12.90;;;8.30;;
77400;SDS011;66855;45.414;11.082;2023-04-24T05:18:40;11.40;;;8.90;;
77400;SDS011;66855;45.414;11.082;2023-04-24T05:21:08;11.80;;;8.60;;
77400;SDS011;66855;45.414;11.082;2023-04-24T05:23:36;9.40;;;7.10;;
77400;SDS011;66855;45.414;11.082;2023-04-24T05:26:03;6.00;;;4.80;;
77400;SDS011;66855;45.414;11.082;2023-04-24T05:28:33;5.20;;;4.30;;
77400;SDS011;66855;45.414;11.082;2023-04-24T05:31:04;6.20;;;4.20;;
77400;SDS011;66855;45.414;11.082;2023-04-24T05:33:31;4.60;;;3.60;;
77400;SDS011;66855;45.414;11.082;2023-04-24T05:35:58;3.50;;;2.30;;
77400;SDS011;66855;45.414;11.082;2023-04-24T05:38:25;4.50;;;2.90;;
77400;SDS011;66855;45.414;11.082;2023-04-24T05:40:52;4.60;;;1.90;;
77400;SDS011;66855;45.414;11.082;2023-04-24T05:43:18;1.30;;;0.70;;
77400;SDS011;66855;45.414;11.082;2023-04-24T05:45:46;0.40;;;0.30;;
77400;SDS011;66855;45.414;11.082;2023-04-24T05:48:13;0.90;;;0.40;;
77400;SDS011;66855;45.414;11.082;2023-04-24T05:50:40;0.70;;;0.40;;
77400;SDS011;66855;45.414;11.082;2023-04-24T05:53:07;1.00;;;0.20;;
77400;SDS011;66855;45.414;11.082;2023-04-24T05:55:34;0.50;;;0.30;;
77400;SDS011;66855;45.414;11.082;2023-04-24T05:58:03;0.60;;;0.40;;
77400;SDS011;66855;45.414;11.082;2023-04-24T06:00:31;0.70;;;0.40;;
77400;SDS011;66855;45.414;11.082;2023-04-24T06:03:03;0.80;;;0.40;;
77400;SDS011;66855;45.414;11.082;2023-04-24T06:05:30;0.50;;;0.50;;
77400;SDS011;66855;45.414;11.082;2023-04-24T06:07:58;1.60;;;0.60;;
77400;SDS011;66855;45.414;11.082;2023-04-24T06:10:28;0.40;;;0.30;;
77400;SDS011;66855;45.414;11.082;2023-04-24T06:12:55;3.40;;;0.40;;
77400;SDS011;66855;45.414;11.082;2023-04-24T06:15:31;1.10;;;0.30;;
77400;SDS011;66855;45.414;11.082;2023-04-24T06:18:03;1.10;;;0.30;;
77400;SDS011;66855;45.414;11.082;2023-04-24T06:20:30;1.50;;;0.50;;
77400;SDS011;66855;45.414;11.082;2023-04-24T06:22:57;1.00;;;0.40;;
77400;SDS011;66855;45.414;11.082;2023-04-24T06:25:25;0.40;;;0.30;;
77400;SDS011;66855;45.414;11.082;2023-04-24T06:27:53;2.00;;;0.40;;
77400;SDS011;66855;45.414;11.082;2023-04-24T06:30:20;0.90;;;0.40;;
77400;SDS011;66855;45.414;11.082;2023-04-24T06:32:47;0.70;;;0.30;;
77400;SDS011;66855;45.414;11.082;2023-04-24T06:35:14;0.80;;;0.40;;
77400;SDS011;66855;45.414;11.082;2023-04-24T06:37:41;0.70;;;0.40;;
77400;SDS011;66855;45.414;11.082;2023-04-24T06:40:09;1.20;;;0.40;;
77400;SDS011;66855;45.414;11.082;2023-04-24T06:42:37;2.20;;;0.50;;
77400;SDS011;66855;45.414;11.082;2023-04-24T06:45:07;0.80;;;0.50;;
77400;SDS011;66855;45.414;11.082;2023-04-24T06:47:34;3.20;;;0.70;;
77400;SDS011;66855;45.414;11.082;2023-04-24T06:50:00;1.90;;;0.80;;
77400;SDS011;66855;45.414;11.082;2023-04-24T06:52:27;2.10;;;0.80;;
77400;SDS011;66855;45.414;11.082;2023-04-24T06:54:59;1.40;;;0.70;;
77400;SDS011;66855;45.414;11.082;2023-04-24T06:57:27;1.30;;;0.90;;
77400;SDS011;66855;45.414;11.082;2023-04-24T06:59:54;2.20;;;1.20;;
77400;SDS011;66855;45.414;11.082;2023-04-24T07:02:21;2.70;;;1.30;;
77400;SDS011;66855;45.414;11.082;2023-04-24T07:04:48;2.60;;;1.70;;
77400;SDS011;66855;45.414;11.082;2023-04-24T07:07:15;3.30;;;2.00;;
77400;SDS011;66855;45.414;11.082;2023-04-24T07:09:42;2.70;;;1.70;;
77400;SDS011;66855;45.414;11.082;2023-04-24T07:12:11;2.50;;;2.00;;
77400;SDS011;66855;45.414;11.082;2023-04-24T07:14:38;2.10;;;1.90;;
77400;SDS011;66855;45.414;11.082;2023-04-24T07:17:05;4.90;;;2.10;;
77400;SDS011;66855;45.414;11.082;2023-04-24T07:19:35;3.40;;;2.10;;
77400;SDS011;66855;45.414;11.082;2023-04-24T07:22:02;3.20;;;2.30;;
77400;SDS011;66855;45.414;11.082;2023-04-24T07:24:30;2.30;;;1.90;;
77400;SDS011;66855;45.414;11.082;2023-04-24T07:26:58;2.60;;;1.80;;
77400;SDS011;66855;45.414;11.082;2023-04-24T07:31:54;4.00;;;2.20;;
77400;SDS011;66855;45.414;11.082;2023-04-24T07:34:21;3.10;;;2.00;;
77400;SDS011;66855;45.414;11.082;2023-04-24T07:36:47;2.70;;;2.00;;
77400;SDS011;66855;45.414;11.082;2023-04-24T07:39:14;2.20;;;1.80;;
77400;SDS011;66855;45.414;11.082;2023-04-24T07:41:42;3.00;;;1.60;;
77400;SDS011;66855;45.414;11.082;2023-04-24T07:44:08;2.50;;;2.30;;
77400;SDS011;66855;45.414;11.082;2023-04-24T07:46:35;3.00;;;2.50;;
77400;SDS011;66855;45.414;11.082;2023-04-24T07:49:02;3.40;;;2.70;;
77400;SDS011;66855;45.414;11.082;2023-04-24T07:51:39;7.20;;;3.20;;
77400;SDS011;66855;45.414;11.082;2023-04-24T07:54:06;4.30;;;3.40;;
77400;SDS011;66855;45.414;11.082;2023-04-24T07:56:33;3.70;;;3.20;;
77400;SDS011;66855;45.414;11.082;2023-04-24T07:59:00;4.50;;;3.70;;
77400;SDS011;66855;45.414;11.082;2023-04-24T08:01:31;4.40;;;3.60;;
77400;SDS011;66855;45.414;11.082;2023-04-24T08:03:59;5.00;;;4.00;;
77400;SDS011;66855;45.414;11.082;2023-04-24T08:06:27;5.00;;;3.80;;
77400;SDS011;66855;45.414;11.082;2023-04-24T08:08:57;5.20;;;4.50;;
77400;SDS011;66855;45.414;11.082;2023-04-24T08:11:25;5.80;;;4.60;;
77400;SDS011;66855;45.414;11.082;2023-04-24T08:13:52;7.20;;;5.20;;
77400;SDS011;66855;45.414;11.082;2023-04-24T08:16:20;8.30;;;5.30;;
77400;SDS011;66855;45.414;11.082;2023-04-24T08:18:47;7.70;;;5.10;;
77400;SDS011;66855;45.414;11.082;2023-04-24T08:21:15;8.70;;;5.10;;
77400;SDS011;66855;45.414;11.082;2023-04-24T08:23:45;5.60;;;3.60;;
77400;SDS011;66855;45.414;11.082;2023-04-24T08:26:12;6.40;;;3.50;;
77400;SDS011;66855;45.414;11.082;2023-04-24T08:28:39;2.60;;;2.10;;
77400;SDS011;66855;45.414;11.082;2023-04-24T08:31:06;1.50;;;1.20;;
77400;SDS011;66855;45.414;11.082;2023-04-24T08:33:33;1.20;;;0.80;;
77400;SDS011;66855;45.414;11.082;2023-04-24T08:36:03;1.30;;;0.60;;
77400;SDS011;66855;45.414;11.082;2023-04-24T08:38:31;1.00;;;0.40;;
77400;SDS011;66855;45.414;11.082;2023-04-24T08:40:59;1.00;;;0.60;;
77400;SDS011;66855;45.414;11.082;2023-04-24T08:43:27;0.30;;;0.20;;
77400;SDS011;66855;45.414;11.082;2023-04-24T08:45:55;2.90;;;0.20;;
77400;SDS011;66855;45.414;11.082;2023-04-24T08:48:23;0.20;;;0.20;;
77400;SDS011;66855;45.414;11.082;2023-04-24T08:50:57;0.20;;;0.20;;
77400;SDS011;66855;45.414;11.082;2023-04-24T08:53:25;1.20;;;0.30;;
77400;SDS011;66855;45.414;11.082;2023-04-24T08:55:54;0.50;;;0.20;;
77400;SDS011;66855;45.414;11.082;2023-04-24T08:58:22;1.90;;;0.20;;
77400;SDS011;66855;45.414;11.082;2023-04-24T09:00:55;1.30;;;0.20;;
77400;SDS011;66855;45.414;11.082;2023-04-24T09:03:23;0.70;;;0.20;;
77400;SDS011;66855;45.414;11.082;2023-04-24T09:05:50;0.30;;;0.10;;
77400;SDS011;66855;45.414;11.082;2023-04-24T09:08:18;0.80;;;0.20;;
77400;SDS011;66855;45.414;11.082;2023-04-24T09:10:45;0.70;;;0.30;;
77400;SDS011;66855;45.414;11.082;2023-04-24T09:13:16;0.70;;;0.30;;
77400;SDS011;66855;45.414;11.082;2023-04-24T09:15:42;0.90;;;0.20;;
77400;SDS011;66855;45.414;11.082;2023-04-24T09:18:09;1.80;;;0.30;;
77400;SDS011;66855;45.414;11.082;2023-04-24T09:20:56;0.80;;;0.20;;
77400;SDS011;66855;45.414;11.082;2023-04-24T09:23:30;0.90;;;0.20;;
77400;SDS011;66855;45.414;11.082;2023-04-24T09:25:59;1.00;;;0.20;;
77400;SDS011;66855;45.414;11.082;2023-04-24T09:31:13;0.40;;;0.10;;
77400;SDS011;66855;45.414;11.082;2023-04-24T09:33:58;0.20;;;0.10;;
77400;SDS011;66855;45.414;11.082;2023-04-24T09:36:38;0.70;;;0.20;;
77400;SDS011;66855;45.414;11.082;2023-04-24T09:39:08;1.00;;;0.20;;
77400;SDS011;66855;45.414;11.082;2023-04-24T09:41:48;0.90;;;0.10;;
77400;SDS011;66855;45.414;11.082;2023-04-24T09:44:20;0.70;;;0.20;;
77400;SDS011;66855;45.414;11.082;2023-04-24T09:46:52;0.30;;;0.20;;
77400;SDS011;66855;45.414;11.082;2023-04-24T09:49:25;1.00;;;0.30;;
77400;SDS011;66855;45.414;11.082;2023-04-24T09:52:02;1.00;;;0.40;;
77400;SDS011;66855;45.414;11.082;2023-04-24T09:54:34;0.90;;;0.50;;
77400;SDS011;66855;45.414;11.082;2023-04-24T09:57:03;1.10;;;0.20;;
77400;SDS011;66855;45.414;11.082;2023-04-24T09:59:30;1.10;;;0.30;;
77400;SDS011;66855;45.414;11.082;2023-04-24T10:01:57;1.00;;;0.40;;
77400;SDS011;66855;45.414;11.082;2023-04-24T10:04:26;0.60;;;0.40;;
77400;SDS011;66855;45.414;11.082;2023-04-24T10:06:55;0.60;;;0.40;;
77400;SDS011;66855;45.414;11.082;2023-04-24T10:09:23;1.90;;;0.40;;
77400;SDS011;66855;45.414;11.082;2023-04-24T10:11:52;0.70;;;0.40;;
77400;SDS011;66855;45.414;11.082;2023-04-24T10:14:23;1.00;;;0.40;;
77400;SDS011;66855;45.414;11.082;2023-04-24T10:16:54;0.90;;;0.40;;
77400;SDS011;66855;45.414;11.082;2023-04-24T10:19:22;0.70;;;0.50;;
77400;SDS011;66855;45.414;11.082;2023-04-24T10:21:52;1.10;;;0.50;;
77400;SDS011;66855;45.414;11.082;2023-04-24T10:24:19;1.70;;;0.60;;
77400;SDS011;66855;45.414;11.082;2023-04-24T10:26:47;1.40;;;0.40;;
77400;SDS011;66855;45.414;11.082;2023-04-24T10:29:16;2.00;;;0.70;;
77400;SDS011;66855;45.414;11.082;2023-04-24T10:31:44;1.20;;;0.50;;
77400;SDS011;66855;45.414;11.082;2023-04-24T10:34:14;1.10;;;0.60;;
77400;SDS011;66855;45.414;11.082;2023-04-24T10:36:45;0.80;;;0.50;;
77400;SDS011;66855;45.414;11.082;2023-04-24T10:39:14;1.80;;;0.70;;
77400;SDS011;66855;45.414;11.082;2023-04-24T10:41:42;1.60;;;0.60;;
77400;SDS011;66855;45.414;11.082;2023-04-24T10:44:12;1.40;;;0.90;;
77400;SDS011;66855;45.414;11.082;2023-04-24T10:46:44;1.90;;;0.80;;
77400;SDS011;66855;45.414;11.082;2023-04-24T10:49:14;1.00;;;0.90;;
77400;SDS011;66855;45.414;11.082;2023-04-24T10:51:47;1.50;;;0.80;;
77400;SDS011;66855;45.414;11.082;2023-04-24T10:54:22;2.00;;;0.90;;
77400;SDS011;66855;45.414;11.082;2023-04-24T10:56:50;2.00;;;1.00;;
77400;SDS011;66855;45.414;11.082;2023-04-24T10:59:24;0.90;;;0.90;;
77400;SDS011;66855;45.414;11.082;2023-04-24T11:01:55;2.20;;;1.30;;
77400;SDS011;66855;45.414;11.082;2023-04-24T11:04:31;3.40;;;1.40;;
77400;SDS011;66855;45.414;11.082;2023-04-24T11:06:59;1.80;;;1.30;;
77400;SDS011;66855;45.414;11.082;2023-04-24T11:09:27;2.80;;;1.20;;
77400;SDS011;66855;45.414;11.082;2023-04-24T11:12:07;2.50;;;1.20;;
77400;SDS011;66855;45.414;11.082;2023-04-24T11:17:46;1.00;;;0.80;;
77400;SDS011;66855;45.414;11.082;2023-04-24T11:20:16;1.70;;;1.00;;
77400;SDS011;66855;45.414;11.082;2023-04-24T11:22:54;3.40;;;1.30;;
77400;SDS011;66855;45.414;11.082;2023-04-24T11:25:22;2.70;;;1.10;;
77400;SDS011;66855;45.414;11.082;2023-04-24T11:27:49;1.00;;;0.90;;
77400;SDS011;66855;45.414;11.082;2023-04-24T11:30:19;2.20;;;1.00;;
77400;SDS011;66855;45.414;11.082;2023-04-24T11:32:52;1.70;;;1.10;;
77400;SDS011;66855;45.414;11.082;2023-04-24T11:35:22;2.70;;;1.40;;
77400;SDS011;66855;45.414;11.082;2023-04-24T11:37:52;3.90;;;2.10;;
77400;SDS011;66855;45.414;11.082;2023-04-24T11:40:39;2.10;;;1.80;;
77400;SDS011;66855;45.414;11.082;2023-04-24T11:43:06;1.80;;;1.40;;
77400;SDS011;66855;45.414;11.082;2023-04-24T11:45:35;2.20;;;1.80;;
77400;SDS011;66855;45.414;11.082;2023-04-24T11:48:02;1.70;;;1.20;;
77400;SDS011;66855;45.414;11.082;2023-04-24T11:50:30;2.00;;;1.40;;
77400;SDS011;66855;45.414;11.082;2023-04-24T11:52:57;3.00;;;1.70;;
77400;SDS011;66855;45.414;11.082;2023-04-24T11:55:26;2.00;;;1.00;;
77400;SDS011;66855;45.414;11.082;2023-04-24T11:57:58;1.50;;;1.20;;
77400;SDS011;66855;45.414;11.082;2023-04-24T12:00:27;1.70;;;1.30;;
77400;SDS011;66855;45.414;11.082;2023-04-24T12:03:12;0.80;;;0.80;;
77400;SDS011;66855;45.414;11.082;2023-04-24T12:05:39;2.10;;;0.90;;
77400;SDS011;66855;45.414;11.082;2023-04-24T12:08:07;2.40;;;0.80;;
77400;SDS011;66855;45.414;11.082;2023-04-24T12:10:34;2.60;;;0.60;;
77400;SDS011;66855;45.414;11.082;2023-04-24T12:13:01;0.80;;;0.60;;
77400;SDS011;66855;45.414;11.082;2023-04-24T12:15:28;0.60;;;0.40;;
77400;SDS011;66855;45.414;11.082;2023-04-24T12:17:56;0.50;;;0.40;;
77400;SDS011;66855;45.414;11.082;2023-04-24T12:20:24;0.70;;;0.50;;
77400;SDS011;66855;45.414;11.082;2023-04-24T12:22:54;0.50;;;0.40;;
77400;SDS011;66855;45.414;11.082;2023-04-24T12:30:32;0.60;;;0.30;;
77400;SDS011;66855;45.414;11.082;2023-04-24T12:33:11;0.50;;;0.20;;
77400;SDS011;66855;45.414;11.082;2023-04-24T12:35:40;1.20;;;0.20;;
77400;SDS011;66855;45.414;11.082;2023-04-24T12:38:08;0.40;;;0.20;;
77400;SDS011;66855;45.414;11.082;2023-04-24T12:40:36;0.30;;;0.30;;
77400;SDS011;66855;45.414;11.082;2023-04-24T12:43:12;0.40;;;0.30;;
77400;SDS011;66855;45.414;11.082;2023-04-24T12:45:44;0.90;;;0.30;;
77400;SDS011;66855;45.414;11.082;2023-04-24T12:48:14;0.80;;;0.30;;
77400;SDS011;66855;45.414;11.082;2023-04-24T12:50:41;0.90;;;0.40;;
77400;SDS011;66855;45.414;11.082;2023-04-24T12:53:11;0.40;;;0.30;;
77400;SDS011;66855;45.414;11.082;2023-04-24T12:55:38;0.60;;;0.50;;
77400;SDS011;66855;45.414;11.082;2023-04-24T13:00:33;0.90;;;0.60;;
77400;SDS011;66855;45.414;11.082;2023-04-24T13:03:00;1.00;;;0.70;;
77400;SDS011;66855;45.414;11.082;2023-04-24T13:05:28;1.10;;;0.80;;
77400;SDS011;66855;45.414;11.082;2023-04-24T13:07:54;1.80;;;0.70;;
77400;SDS011;66855;45.414;11.082;2023-04-24T13:10:21;1.50;;;0.90;;
77400;SDS011;66855;45.414;11.082;2023-04-24T13:12:48;0.50;;;0.40;;
77400;SDS011;66855;45.414;11.082;2023-04-24T13:15:16;0.60;;;0.50;;
77400;SDS011;66855;45.414;11.082;2023-04-24T13:17:43;0.80;;;0.80;;
77400;SDS011;66855;45.414;11.082;2023-04-24T13:20:10;0.60;;;0.60;;
77400;SDS011;66855;45.414;11.082;2023-04-24T13:22:37;1.40;;;0.70;;
77400;SDS011;66855;45.414;11.082;2023-04-24T13:25:05;1.10;;;0.40;;
77400;SDS011;66855;45.414;11.082;2023-04-24T13:27:33;1.30;;;0.40;;
77400;SDS011;66855;45.414;11.082;2023-04-24T13:30:00;0.80;;;0.40;;
77400;SDS011;66855;45.414;11.082;2023-04-24T13:32:26;1.70;;;0.50;;
77400;SDS011;66855;45.414;11.082;2023-04-24T13:34:56;1.00;;;0.50;;
77400;SDS011;66855;45.414;11.082;2023-04-24T13:37:23;0.50;;;0.40;;
77400;SDS011;66855;45.414;11.082;2023-04-24T13:39:49;0.50;;;0.50;;
77400;SDS011;66855;45.414;11.082;2023-04-24T13:42:18;0.30;;;0.30;;
77400;SDS011;66855;45.414;11.082;2023-04-24T13:44:46;1.30;;;0.30;;
77400;SDS011;66855;45.414;11.082;2023-04-24T13:47:13;0.40;;;0.40;;
77400;SDS011;66855;45.414;11.082;2023-04-24T13:49:42;0.80;;;0.50;;
77400;SDS011;66855;45.414;11.082;2023-04-24T13:52:09;0.50;;;0.40;;
77400;SDS011;66855;45.414;11.082;2023-04-24T13:54:36;0.90;;;0.60;;
77400;SDS011;66855;45.414;11.082;2023-04-24T13:57:03;1.20;;;0.50;;
77400;SDS011;66855;45.414;11.082;2023-04-24T13:59:30;0.80;;;0.50;;
77400;SDS011;66855;45.414;11.082;2023-04-24T14:01:57;0.90;;;0.60;;
77400;SDS011;66855;45.414;11.082;2023-04-24T14:04:24;1.60;;;0.60;;
77400;SDS011;66855;45.414;11.082;2023-04-24T14:09:19;1.90;;;1.00;;
77400;SDS011;66855;45.414;11.082;2023-04-24T14:11:46;1.20;;;1.00;;
77400;SDS011;66855;45.414;11.082;2023-04-24T14:14:13;1.40;;;1.20;;
77400;SDS011;66855;45.414;11.082;2023-04-24T14:16:39;3.30;;;1.30;;
77400;SDS011;66855;45.414;11.082;2023-04-24T14:19:06;2.40;;;1.40;;
77400;SDS011;66855;45.414;11.082;2023-04-24T14:21:37;3.90;;;1.10;;
77400;SDS011;66855;45.414;11.082;2023-04-24T14:24:03;1.40;;;1.00;;
77400;SDS011;66855;45.414;11.082;2023-04-24T14:26:30;2.20;;;0.90;;
77400;SDS011;66855;45.414;11.082;2023-04-24T14:28:57;1.60;;;1.10;;
77400;SDS011;66855;45.414;11.082;2023-04-24T14:31:40;1.20;;;0.90;;
77400;SDS011;66855;45.414;11.082;2023-04-24T14:34:07;2.00;;;0.90;;
77400;SDS011;66855;45.414;11.082;2023-04-24T14:36:35;2.40;;;0.90;;
77400;SDS011;66855;45.414;11.082;2023-04-24T14:39:01;3.50;;;1.40;;
77400;SDS011;66855;45.414;11.082;2023-04-24T14:41:33;1.10;;;0.80;;
77400;SDS011;66855;45.414;11.082;2023-04-24T14:44:03;2.00;;;0.90;;
77400;SDS011;66855;45.414;11.082;2023-04-24T14:46:30;1.00;;;0.80;;
77400;SDS011;66855;45.414;11.082;2023-04-24T14:48:57;2.10;;;1.10;;
77400;SDS011;66855;45.414;11.082;2023-04-24T14:51:24;1.10;;;0.80;;
77400;SDS011;66855;45.414;11.082;2023-04-24T14:53:52;1.80;;;0.80;;
77400;SDS011;66855;45.414;11.082;2023-04-24T14:56:20;1.20;;;0.70;;
77400;SDS011;66855;45.414;11.082;2023-04-24T14:58:47;1.20;;;0.90;;